createdAt,value
2023-05-02T00:00:32.088Z,91.30
2023-05-02T00:03:01.136Z,86.70
2023-05-02T00:05:28.101Z,75.30
2023-05-02T00:07:55.024Z,65.70
2023-05-02T00:10:21.958Z,66.10
2023-05-02T00:12:48.703Z,75.60
2023-05-02T00:15:15.557Z,88.00
2023-05-02T00:17:42.389Z,88.70
2023-05-02T00:20:10.764Z,85.10
2023-05-02T00:22:38.131Z,75.60
2023-05-02T00:25:05.885Z,75.30
2023-05-02T00:27:33.344Z,74.50
2023-05-02T00:30:00.605Z,72.30
2023-05-02T00:32:28.749Z,69.20
2023-05-02T00:34:56.036Z,68.20
2023-05-02T00:39:53.370Z,65.00
2023-05-02T00:42:20.162Z,65.30
2023-05-02T00:44:47.009Z,61.90
2023-05-02T00:47:15.657Z,66.10
2023-05-02T00:49:42.493Z,74.20
2023-05-02T00:52:09.700Z,87.30
2023-05-02T00:54:39.410Z,83.00
2023-05-02T00:57:06.807Z,84.30
2023-05-02T00:59:36.316Z,87.30
2023-05-02T01:02:18.626Z,90.60
2023-05-02T01:05:03.359Z,91.00
2023-05-02T01:07:49.194Z,90.00
2023-05-02T01:10:34.064Z,87.30
2023-05-02T01:13:26.312Z,92.10
2023-05-02T01:15:56.121Z,90.90
2023-05-02T01:18:31.566Z,88.90
2023-05-02T01:21:04.573Z,89.20
2023-05-02T01:24:09.295Z,90.70
2023-05-02T01:26:57.847Z,96.40
2023-05-02T01:29:27.716Z,99.70
2023-05-02T01:31:56.935Z,99.90
2023-05-02T01:34:25.494Z,98.80
2023-05-02T01:36:55.472Z,99.20
2023-05-02T01:39:24.928Z,99.90
2023-05-02T01:41:56.057Z,99.90
2023-05-02T01:44:24.261Z,99.40
2023-05-02T01:46:53.450Z,97.90
2023-05-02T01:49:22.669Z,92.20
2023-05-02T01:51:50.766Z,91.70
2023-05-02T01:54:20.282Z,91.70
2023-05-02T01:56:49.269Z,96.00
2023-05-02T01:59:20.240Z,94.70
2023-05-02T02:01:48.356Z,95.20
2023-05-02T02:04:16.594Z,93.80
2023-05-02T02:06:48.604Z,94.50
2023-05-02T02:09:15.597Z,95.80
2023-05-02T02:11:57.642Z,99.80
2023-05-02T02:14:30.946Z,99.70
2023-05-02T02:17:01.935Z,99.90
2023-05-02T02:19:30.882Z,99.90
2023-05-02T02:21:59.037Z,99.90
2023-05-02T02:24:26.787Z,97.40
2023-05-02T02:26:55.829Z,94.70
2023-05-02T02:29:22.587Z,97.00
2023-05-02T02:31:49.320Z,96.00
2023-05-02T02:34:16.231Z,97.50
2023-05-02T02:36:52.932Z,99.10
2023-05-02T02:39:30.827Z,99.90
2023-05-02T02:42:10.051Z,99.90
2023-05-02T02:45:03.241Z,99.90
2023-05-02T02:47:44.611Z,99.90
2023-05-02T02:50:17.457Z,99.90
2023-05-02T02:52:57.533Z,99.90
2023-05-02T02:55:51.068Z,99.90
2023-05-02T02:58:47.993Z,99.90
2023-05-02T03:01:20.580Z,99.90
2023-05-02T03:03:49.540Z,99.90
2023-05-02T03:06:19.530Z,98.30
2023-05-02T03:08:46.553Z,96.10
2023-05-02T03:11:13.359Z,92.10
2023-05-02T03:13:40.143Z,90.00
2023-05-02T03:16:13.535Z,86.40
2023-05-02T03:18:41.383Z,87.40
2023-05-02T03:21:08.255Z,86.30
2023-05-02T03:23:35.046Z,83.40
2023-05-02T03:26:02.915Z,76.20
2023-05-02T03:28:29.746Z,78.80
2023-05-02T03:30:56.576Z,80.70
2023-05-02T03:33:23.758Z,81.50
2023-05-02T03:35:50.422Z,85.80
2023-05-02T03:38:17.120Z,86.50
2023-05-02T03:40:43.865Z,92.00
2023-05-02T03:43:11.512Z,92.40
2023-05-02T03:45:38.355Z,92.30
2023-05-02T03:48:05.106Z,92.10
2023-05-02T03:50:32.251Z,91.10
2023-05-02T03:52:59.027Z,92.30
2023-05-02T03:55:25.852Z,94.80
2023-05-02T03:57:52.601Z,95.90
2023-05-02T04:00:19.526Z,90.90
2023-05-02T04:02:46.489Z,82.80
2023-05-02T04:05:13.594Z,85.00
2023-05-02T04:07:40.477Z,91.40
2023-05-02T04:10:07.928Z,90.10
2023-05-02T04:12:34.617Z,90.10
2023-05-02T04:15:01.358Z,88.70
2023-05-02T04:17:28.111Z,91.00
2023-05-02T04:19:54.796Z,91.00
2023-05-02T04:22:21.471Z,91.50
2023-05-02T04:24:48.212Z,90.80
2023-05-02T04:27:15.355Z,90.20
2023-05-02T04:29:42.377Z,90.00
2023-05-02T04:32:10.592Z,90.30
2023-05-02T04:34:37.380Z,88.00
2023-05-02T04:37:04.198Z,82.30
2023-05-02T04:39:30.882Z,78.20
2023-05-02T04:41:57.739Z,67.70
2023-05-02T04:44:24.478Z,71.20
2023-05-02T04:46:51.497Z,61.00
2023-05-02T04:49:18.460Z,63.70
2023-05-02T04:51:45.369Z,75.10
2023-05-02T04:54:12.855Z,78.30
2023-05-02T04:56:40.281Z,81.80
2023-05-02T04:59:06.964Z,85.60
2023-05-02T05:01:33.707Z,86.10
2023-05-02T05:04:01.427Z,80.80
2023-05-02T05:06:28.326Z,68.50
2023-05-02T05:08:55.237Z,81.30
2023-05-02T05:11:22.411Z,85.60
2023-05-02T05:13:49.282Z,91.00
2023-05-02T05:16:16.158Z,89.40
2023-05-02T05:18:43.094Z,92.10
2023-05-02T05:21:10.804Z,94.60
2023-05-02T05:23:38.446Z,94.50
2023-05-02T05:26:12.375Z,92.60
2023-05-02T05:28:39.510Z,81.90
2023-05-02T05:31:07.432Z,88.20
2023-05-02T05:33:35.178Z,89.00
2023-05-02T05:36:09.416Z,88.30
2023-05-02T05:38:36.645Z,85.00
2023-05-02T05:41:05.479Z,82.80
2023-05-02T05:43:32.250Z,79.10
2023-05-02T05:45:58.946Z,78.20
2023-05-02T05:48:25.850Z,85.30
2023-05-02T05:50:53.125Z,88.20
2023-05-02T05:53:20.007Z,76.70
2023-05-02T05:55:46.719Z,64.40
2023-05-02T05:58:13.706Z,61.40
2023-05-02T06:00:41.844Z,48.40
2023-05-02T06:03:09.908Z,50.10
2023-05-02T06:05:36.962Z,59.00
2023-05-02T06:08:03.926Z,63.10
2023-05-02T06:10:31.870Z,59.60
2023-05-02T06:12:58.850Z,49.60
2023-05-02T06:15:25.752Z,59.30
2023-05-02T06:17:52.495Z,60.60
2023-05-02T06:20:19.352Z,60.00
2023-05-02T06:22:46.189Z,52.90
2023-05-02T06:25:13.029Z,31.70
2023-05-02T06:27:39.836Z,27.20
2023-05-02T06:30:07.374Z,22.90
2023-05-02T06:32:34.186Z,28.30
2023-05-02T06:35:01.009Z,9.00
2023-05-02T06:37:27.841Z,2.80
2023-05-02T06:39:56.519Z,20.00
2023-05-02T06:42:23.222Z,2.10
2023-05-02T06:44:51.511Z,1.00
2023-05-02T06:47:18.336Z,1.00
2023-05-02T06:49:45.188Z,1.00
2023-05-02T06:52:11.915Z,1.00
2023-05-02T06:54:39.541Z,1.00
2023-05-02T06:57:06.272Z,1.00
2023-05-02T06:59:32.964Z,1.00
2023-05-02T07:01:59.683Z,1.00
2023-05-02T07:04:29.381Z,1.00
2023-05-02T07:06:56.227Z,1.00
2023-05-02T07:09:23.090Z,1.00
2023-05-02T07:11:49.884Z,1.00
2023-05-02T07:14:16.642Z,1.00
2023-05-02T07:16:43.418Z,1.00
2023-05-02T07:19:10.165Z,1.00
2023-05-02T07:21:36.860Z,1.00
2023-05-02T07:24:03.811Z,1.00
2023-05-02T07:26:30.645Z,1.00
2023-05-02T07:28:57.401Z,1.00
2023-05-02T07:31:24.122Z,1.00
2023-05-02T07:33:50.945Z,1.00
2023-05-02T07:36:18.165Z,1.00
2023-05-02T07:38:44.857Z,1.00
2023-05-02T07:41:13.915Z,1.00
2023-05-02T07:43:40.605Z,1.00
2023-05-02T07:46:07.301Z,63.20
2023-05-02T07:48:34.826Z,1.00
2023-05-02T07:51:08.734Z,1.00
2023-05-02T07:53:35.590Z,1.00
2023-05-02T07:56:06.260Z,1.00
2023-05-02T07:58:33.104Z,1.00
2023-05-02T08:00:59.817Z,1.00
2023-05-02T08:03:27.952Z,1.00
2023-05-02T08:05:54.914Z,1.00
2023-05-02T08:08:21.757Z,1.00
2023-05-02T08:10:48.538Z,1.00
2023-05-02T08:13:15.235Z,1.00
2023-05-02T08:15:41.915Z,1.00
2023-05-02T08:18:08.763Z,99.90
2023-05-02T08:20:36.370Z,99.90
2023-05-02T08:23:03.115Z,99.90
2023-05-02T08:25:30.476Z,99.90
2023-05-02T08:27:57.257Z,99.90
2023-05-02T08:30:24.547Z,99.90
2023-05-02T08:32:51.366Z,99.90
2023-05-02T08:35:18.160Z,99.90
2023-05-02T08:37:44.845Z,99.90
2023-05-02T08:40:12.851Z,73.20
2023-05-02T08:42:43.709Z,51.70
2023-05-02T08:45:14.901Z,36.50
2023-05-02T08:47:43.385Z,74.20
2023-05-02T08:50:11.543Z,91.30
2023-05-02T08:52:38.917Z,59.10
2023-05-02T08:55:07.492Z,49.10
2023-05-02T08:57:34.327Z,42.90
2023-05-02T09:00:01.307Z,38.60
2023-05-02T09:03:04.668Z,41.50
2023-05-02T09:05:39.627Z,38.30
2023-05-02T09:08:07.175Z,23.50
2023-05-02T09:10:39.104Z,18.80
2023-05-02T09:13:36.577Z,12.30
2023-05-02T09:16:05.871Z,8.20
2023-05-02T09:18:42.521Z,5.30
2023-05-02T09:21:12.679Z,1.00
2023-05-02T09:23:47.108Z,1.00
2023-05-02T09:26:43.316Z,1.00
2023-05-02T09:29:10.068Z,1.00
2023-05-02T09:31:55.100Z,1.00
2023-05-02T09:34:23.306Z,1.00
2023-05-02T09:36:56.685Z,1.00
2023-05-02T09:39:26.299Z,1.00
2023-05-02T09:41:54.009Z,1.00
2023-05-02T09:44:23.663Z,1.00
2023-05-02T09:46:52.926Z,1.00
2023-05-02T09:49:38.500Z,1.00
2023-05-02T09:52:12.873Z,1.00
2023-05-02T09:54:39.582Z,1.00
2023-05-02T09:57:07.374Z,1.00
2023-05-02T09:59:34.635Z,1.00
2023-05-02T10:02:07.221Z,1.00
2023-05-02T10:04:34.531Z,19.30
2023-05-02T10:07:02.894Z,9.90
2023-05-02T10:09:35.655Z,14.20
2023-05-02T10:12:08.271Z,22.90
2023-05-02T10:14:43.790Z,24.50
2023-05-02T10:17:16.543Z,29.20
2023-05-02T10:19:57.190Z,18.30
2023-05-02T10:22:24.953Z,35.10
2023-05-02T10:24:53.677Z,34.90
2023-05-02T10:27:20.475Z,47.30
2023-05-02T10:29:47.563Z,51.40
2023-05-02T10:32:17.011Z,48.30
2023-05-02T10:34:44.513Z,51.70
2023-05-02T10:37:12.660Z,53.90
2023-05-02T10:39:39.489Z,58.00
2023-05-02T10:42:07.824Z,65.90
2023-05-02T10:44:39.842Z,68.30
2023-05-02T10:47:23.917Z,75.50
2023-05-02T10:50:01.017Z,1.00
2023-05-02T10:52:36.773Z,1.00
2023-05-02T10:55:16.319Z,1.00
2023-05-02T10:58:01.147Z,1.00
2023-05-02T11:00:30.208Z,1.00
2023-05-02T11:02:57.156Z,1.00
2023-05-02T11:05:27.055Z,1.00
2023-05-02T11:08:15.747Z,1.00
2023-05-02T11:10:43.185Z,1.00
2023-05-02T11:13:09.973Z,1.00
2023-05-02T11:15:42.893Z,1.00
2023-05-02T11:18:13.323Z,1.00
2023-05-02T11:20:41.698Z,1.00
2023-05-02T11:23:17.088Z,1.00
2023-05-02T11:26:10.795Z,1.00
2023-05-02T11:28:37.739Z,1.00
2023-05-02T11:31:10.249Z,11.10
2023-05-02T11:33:38.553Z,47.30
2023-05-02T11:36:05.502Z,1.00
2023-05-02T11:38:39.181Z,50.20
2023-05-02T11:41:06.153Z,1.00
2023-05-02T11:43:33.089Z,1.00
2023-05-02T11:46:01.925Z,1.00
2023-05-02T11:48:30.435Z,1.00
2023-05-02T11:51:02.379Z,1.00
2023-05-02T11:53:30.132Z,1.00
2023-05-02T11:56:02.390Z,9.40
2023-05-02T11:58:33.265Z,44.10
2023-05-02T12:01:14.211Z,1.00
2023-05-02T12:03:41.486Z,19.80
2023-05-02T12:06:14.100Z,1.00
2023-05-02T12:08:43.054Z,1.00
2023-05-02T12:11:11.370Z,1.00
2023-05-02T12:13:48.338Z,1.00
2023-05-02T12:16:15.779Z,1.00
2023-05-02T12:18:42.822Z,1.00
2023-05-02T12:21:10.066Z,1.00
2023-05-02T12:23:37.686Z,1.00
2023-05-02T12:26:22.016Z,1.00
2023-05-02T12:28:51.679Z,1.00
2023-05-02T12:31:19.327Z,1.00
2023-05-02T12:33:48.420Z,99.90
2023-05-02T12:36:15.414Z,99.90
2023-05-02T12:38:49.403Z,1.00
2023-05-02T12:41:16.158Z,99.90
2023-05-02T12:43:51.174Z,67.10
2023-05-02T12:46:17.898Z,1.00
2023-05-02T12:48:46.172Z,99.90
2023-05-02T12:51:28.756Z,99.90
2023-05-02T12:53:55.652Z,1.00
2023-05-02T12:56:24.410Z,99.90
2023-05-02T12:58:51.212Z,99.90
2023-05-02T13:01:17.923Z,99.90
2023-05-02T13:03:44.856Z,99.90
2023-05-02T13:06:11.763Z,99.90
2023-05-02T13:08:38.586Z,99.90
2023-05-02T13:11:05.410Z,99.90
2023-05-02T13:13:32.757Z,58.20
2023-05-02T13:15:59.688Z,1.00
2023-05-02T13:18:28.153Z,1.00
2023-05-02T13:20:55.222Z,1.00
2023-05-02T13:23:22.170Z,1.00
2023-05-02T13:25:48.865Z,99.90
2023-05-02T13:28:15.773Z,99.90
2023-05-02T13:30:42.728Z,99.90
2023-05-02T13:33:09.529Z,99.90
2023-05-02T13:35:36.311Z,99.90
2023-05-02T13:38:03.619Z,99.90
2023-05-02T13:40:30.497Z,99.90
2023-05-02T13:42:57.563Z,99.90
2023-05-02T13:45:24.355Z,99.90
2023-05-02T13:47:51.160Z,99.90
2023-05-02T13:50:17.878Z,99.90
2023-05-02T13:52:45.462Z,99.90
2023-05-02T13:55:13.854Z,99.90
2023-05-02T13:57:40.539Z,99.90
2023-05-02T14:00:09.752Z,99.90
2023-05-02T14:02:37.082Z,99.90
2023-05-02T14:05:04.247Z,99.90
2023-05-02T14:07:30.942Z,99.90
2023-05-02T14:09:57.727Z,99.90
2023-05-02T14:12:24.491Z,99.90
2023-05-02T14:14:52.568Z,99.90
2023-05-02T14:17:19.527Z,99.90
2023-05-02T14:19:46.256Z,99.90
2023-05-02T14:22:12.952Z,99.90
2023-05-02T14:24:39.641Z,99.90
2023-05-02T14:27:07.725Z,99.90
2023-05-02T14:29:34.465Z,99.90
2023-05-02T14:32:01.556Z,99.90
2023-05-02T14:34:28.412Z,99.90
2023-05-02T14:36:55.197Z,99.90
2023-05-02T14:39:22.019Z,99.90
2023-05-02T14:41:48.804Z,99.90
2023-05-02T14:44:15.597Z,99.90
2023-05-02T14:46:42.453Z,99.90
2023-05-02T14:49:09.731Z,99.90
2023-05-02T14:51:39.612Z,99.90
2023-05-02T14:54:07.169Z,99.90
2023-05-02T14:56:33.957Z,99.90
2023-05-02T14:59:00.768Z,99.90
2023-05-02T15:01:27.629Z,99.90
2023-05-02T15:04:05.197Z,99.90
2023-05-02T15:06:34.976Z,99.90
2023-05-02T15:09:02.183Z,99.90
2023-05-02T15:11:28.845Z,99.90
2023-05-02T15:13:57.549Z,99.90
2023-05-02T15:16:27.132Z,99.90
2023-05-02T15:18:54.305Z,99.90
2023-05-02T15:21:21.523Z,99.90
2023-05-02T15:23:48.265Z,99.90
2023-05-02T15:26:15.256Z,99.90
2023-05-02T15:28:42.250Z,99.90
2023-05-02T15:31:09.020Z,99.90
2023-05-02T15:33:35.903Z,99.90
2023-05-02T15:36:02.830Z,99.90
2023-05-02T15:38:29.764Z,99.90
2023-05-02T15:40:58.118Z,99.90
2023-05-02T15:43:25.235Z,99.90
2023-05-02T15:45:56.608Z,99.90
2023-05-02T15:48:24.575Z,99.90
2023-05-02T15:50:52.441Z,99.90
2023-05-02T15:53:22.150Z,99.90
2023-05-02T15:55:50.604Z,99.90
2023-05-02T15:58:18.463Z,99.90
2023-05-02T16:00:46.556Z,99.90
2023-05-02T16:03:13.648Z,99.90
2023-05-02T16:05:40.370Z,99.90
2023-05-02T16:08:07.532Z,99.90
2023-05-02T16:10:36.533Z,99.90
2023-05-02T16:13:03.454Z,99.90
2023-05-02T16:15:30.515Z,99.90
2023-05-02T16:17:57.558Z,99.90
2023-05-02T16:20:24.434Z,99.90
2023-05-02T16:22:51.409Z,99.90
2023-05-02T16:25:18.947Z,99.90
2023-05-02T16:27:45.847Z,99.90
2023-05-02T16:30:13.028Z,99.90
2023-05-02T16:32:40.653Z,99.90
2023-05-02T16:35:10.736Z,99.90
2023-05-02T16:37:37.562Z,99.90
2023-05-02T16:40:06.041Z,99.90
2023-05-02T16:42:33.175Z,99.90
2023-05-02T16:44:59.876Z,99.90
2023-05-02T16:47:28.484Z,99.90
2023-05-02T16:49:56.856Z,99.90
2023-05-02T16:52:23.875Z,99.90
2023-05-02T16:54:50.922Z,99.90
2023-05-02T16:57:21.381Z,99.90
2023-05-02T16:59:50.146Z,99.90
2023-05-02T17:02:17.909Z,99.90
2023-05-02T17:04:44.631Z,99.90
2023-05-02T17:07:12.272Z,99.90
2023-05-02T17:09:40.857Z,99.90
2023-05-02T17:12:10.736Z,99.90
2023-05-02T17:14:39.577Z,99.90
2023-05-02T17:17:06.356Z,99.90
2023-05-02T17:19:33.213Z,99.90
2023-05-02T17:22:01.428Z,99.90
2023-05-02T17:24:29.994Z,99.90
2023-05-02T17:26:56.968Z,99.90
2023-05-02T17:29:23.743Z,99.90
2023-05-02T17:31:50.570Z,99.90
2023-05-02T17:34:17.357Z,99.90
2023-05-02T17:36:44.883Z,99.90
2023-05-02T17:39:13.192Z,99.90
2023-05-02T17:41:40.042Z,99.90
2023-05-02T17:44:06.802Z,99.90
2023-05-02T17:46:33.695Z,99.90
2023-05-02T17:49:01.098Z,1.00
2023-05-02T17:51:28.226Z,1.00
2023-05-02T17:53:55.129Z,1.00
2023-05-02T17:56:22.831Z,1.00
2023-05-02T17:58:49.612Z,1.00
2023-05-02T18:01:17.599Z,99.90
2023-05-02T18:03:44.947Z,1.00
2023-05-02T18:06:18.680Z,1.00
2023-05-02T18:08:46.102Z,99.90
2023-05-02T18:11:20.048Z,1.00
2023-05-02T18:13:48.455Z,1.00
2023-05-02T18:16:15.892Z,1.00
2023-05-02T18:18:42.666Z,1.00
2023-05-02T18:21:09.657Z,95.50
2023-05-02T18:23:36.554Z,1.00
2023-05-02T18:26:03.485Z,99.90
2023-05-02T18:28:30.312Z,99.90
2023-05-02T18:30:57.178Z,50.00
2023-05-02T18:33:23.897Z,99.90
2023-05-02T18:35:50.795Z,95.50
2023-05-02T18:38:18.332Z,99.90
2023-05-02T18:40:45.168Z,1.00
2023-05-02T18:43:11.860Z,99.90
2023-05-02T18:45:38.671Z,99.90
2023-05-02T18:48:05.677Z,99.90
2023-05-02T18:50:32.516Z,99.90
2023-05-02T18:52:59.293Z,99.90
2023-05-02T18:55:26.195Z,1.00
2023-05-02T18:57:52.972Z,1.00
2023-05-02T19:00:20.507Z,1.00
2023-05-02T19:02:47.811Z,1.00
2023-05-02T19:05:15.096Z,1.00
2023-05-02T19:07:42.325Z,1.00
2023-05-02T19:10:11.120Z,99.90
2023-05-02T19:12:38.295Z,99.90
2023-05-02T19:15:06.767Z,99.90
2023-05-02T19:17:33.730Z,1.00
2023-05-02T19:20:01.257Z,99.90
2023-05-02T19:22:28.084Z,74.90
2023-05-02T19:24:55.222Z,99.90
2023-05-02T19:27:21.916Z,99.90
2023-05-02T19:29:48.596Z,1.00
2023-05-02T19:32:15.950Z,1.00
2023-05-02T19:34:42.779Z,1.00
2023-05-02T19:37:09.473Z,99.90
2023-05-02T19:39:36.163Z,99.90
2023-05-02T19:42:03.286Z,1.00
2023-05-02T19:44:30.394Z,1.00
2023-05-02T19:46:57.127Z,1.00
2023-05-02T19:49:23.904Z,1.00
2023-05-02T19:51:50.647Z,99.90
2023-05-02T19:54:17.347Z,82.30
2023-05-02T19:56:44.333Z,1.00
2023-05-02T19:59:11.238Z,1.00
2023-05-02T20:01:38.104Z,99.90
2023-05-02T20:04:04.938Z,1.00
2023-05-02T20:06:32.267Z,99.90
2023-05-02T20:08:59.243Z,1.00
2023-05-02T20:11:26.309Z,1.00
2023-05-02T20:13:54.338Z,99.90
2023-05-02T20:16:21.205Z,99.90
2023-05-02T20:18:48.024Z,1.00
2023-05-02T20:21:14.736Z,99.90
2023-05-02T20:23:43.407Z,1.00
2023-05-02T20:26:10.507Z,99.90
2023-05-02T20:28:37.938Z,99.90
2023-05-02T20:31:04.868Z,99.90
2023-05-02T20:33:43.774Z,99.90
2023-05-02T20:36:12.872Z,1.00
2023-05-02T20:38:42.568Z,1.00
2023-05-02T20:41:12.624Z,1.00
2023-05-02T20:43:41.183Z,1.00
2023-05-02T20:46:12.373Z,1.00
2023-05-02T20:48:39.213Z,1.00
2023-05-02T20:51:06.116Z,1.00
2023-05-02T20:53:34.616Z,1.00
2023-05-02T20:56:01.289Z,1.00
2023-05-02T20:58:27.967Z,99.90
2023-05-02T21:00:54.652Z,1.00
2023-05-02T21:03:21.994Z,1.00
2023-05-02T21:05:53.500Z,99.90
2023-05-02T21:08:20.912Z,93.30
2023-05-02T21:10:47.999Z,99.90
2023-05-02T21:13:14.810Z,1.00
2023-05-02T21:15:41.720Z,99.90
2023-05-02T21:18:08.495Z,1.00
2023-05-02T21:20:36.078Z,1.00
2023-05-02T21:23:02.803Z,1.00
2023-05-02T21:25:29.726Z,1.00
2023-05-02T21:27:56.570Z,99.90
2023-05-02T21:30:24.459Z,99.90
2023-05-02T21:32:51.414Z,99.90
2023-05-02T21:35:18.166Z,99.90
2023-05-02T21:37:44.891Z,99.90
2023-05-02T21:40:12.357Z,1.00
2023-05-02T21:42:39.370Z,99.90
2023-05-02T21:45:06.936Z,99.90
2023-05-02T21:47:33.775Z,99.90
2023-05-02T21:50:00.779Z,99.90
2023-05-02T21:52:28.135Z,99.90
2023-05-02T21:54:54.941Z,1.00
2023-05-02T21:57:21.616Z,1.00
2023-05-02T21:59:48.345Z,72.50
2023-05-02T22:02:15.171Z,1.00
2023-05-02T22:04:43.068Z,99.90
2023-05-02T22:07:11.806Z,1.00
2023-05-02T22:09:38.468Z,99.90
2023-05-02T22:12:05.657Z,1.00
2023-05-02T22:17:11.635Z,1.00
2023-05-02T22:19:39.344Z,1.00
2023-05-02T22:22:06.643Z,1.00
2023-05-02T22:24:33.975Z,1.00
2023-05-02T22:27:00.837Z,1.00
2023-05-02T22:29:27.587Z,1.00
2023-05-02T22:31:54.446Z,1.00
2023-05-02T22:34:21.233Z,1.00
2023-05-02T22:36:47.964Z,1.00
2023-05-02T22:39:15.745Z,1.00
2023-05-02T22:41:43.326Z,1.00
2023-05-02T22:44:11.296Z,1.00
2023-05-02T22:46:38.760Z,1.00
2023-05-02T22:49:07.658Z,1.00
2023-05-02T22:51:34.413Z,1.00
2023-05-02T22:54:04.723Z,1.00
2023-05-02T22:56:31.470Z,1.00
2023-05-02T22:58:58.129Z,1.00
2023-05-02T23:01:24.828Z,1.00
2023-05-02T23:03:51.952Z,1.00
2023-05-02T23:06:18.914Z,1.00
2023-05-02T23:08:46.936Z,1.00
2023-05-02T23:11:13.648Z,1.00
2023-05-02T23:13:40.341Z,1.00
2023-05-02T23:16:07.296Z,1.00
2023-05-02T23:18:34.129Z,1.00
2023-05-02T23:21:00.961Z,1.00
2023-05-02T23:23:28.086Z,1.00
2023-05-02T23:25:54.793Z,1.00
2023-05-02T23:28:21.553Z,1.00
2023-05-02T23:30:48.718Z,2.90
2023-05-02T23:33:16.325Z,5.20
2023-05-02T23:35:43.124Z,11.00
2023-05-02T23:38:09.814Z,11.00
2023-05-02T23:40:36.567Z,10.50
2023-05-02T23:43:03.457Z,12.10
2023-05-02T23:45:30.255Z,6.40
2023-05-02T23:47:56.953Z,5.10
2023-05-02T23:50:23.661Z,4.10
2023-05-02T23:52:50.345Z,7.90
2023-05-02T23:55:17.112Z,20.20
2023-05-02T23:57:43.827Z,21.90
